sensor_id;sensor_type;location;lat;lon;timestamp;temperature;humidity
18073;DHT22;9161;47.348;9.648;2024-03-17T00:00:00;8.40;99.90
18073;DHT22;9161;47.348;9.648;2024-03-17T00:05:01;8.30;99.90
18073;DHT22;9161;47.348;9.648;2024-03-17T00:10:05;8.30;99.90
18073;DHT22;9161;47.348;9.648;2024-03-17T00:15:08;8.20;99.90
18073;DHT22;9161;47.348;9.648;2024-03-17T00:20:10;8.30;99.90
18073;DHT22;9161;47.348;9.648;2024-03-17T00:25:20;8.40;99.90
18073;DHT22;9161;47.348;9.648;2024-03-17T00:30:22;8.50;99.90
18073;DHT22;9161;47.348;9.648;2024-03-17T00:35:24;8.40;99.90
18073;DHT22;9161;47.348;9.648;2024-03-17T00:40:27;8.30;99.90
18073;DHT22;9161;47.348;9.648;2024-03-17T00:45:28;8.20;99.90
18073;DHT22;9161;47.348;9.648;2024-03-17T00:50:31;8.10;99.90
18073;DHT22;9161;47.348;9.648;2024-03-17T00:55:34;8.10;99.90
18073;DHT22;9161;47.348;9.648;2024-03-17T01:00:35;8.10;99.90
18073;DHT22;9161;47.348;9.648;2024-03-17T01:05:38;8.10;99.90
18073;DHT22;9161;47.348;9.648;2024-03-17T01:10:43;8.10;99.90
18073;DHT22;9161;47.348;9.648;2024-03-17T01:15:51;8.10;99.90
18073;DHT22;9161;47.348;9.648;2024-03-17T01:20:53;8.10;99.90
18073;DHT22;9161;47.348;9.648;2024-03-17T01:25:56;8.10;99.90
18073;DHT22;9161;47.348;9.648;2024-03-17T01:30:57;8.10;99.90
18073;DHT22;9161;47.348;9.648;2024-03-17T01:35:58;8.10;99.90
18073;DHT22;9161;47.348;9.648;2024-03-17T01:41:01;8.00;99.90
18073;DHT22;9161;47.348;9.648;2024-03-17T01:46:03;7.90;99.90
18073;DHT22;9161;47.348;9.648;2024-03-17T01:51:04;7.90;99.90
18073;DHT22;9161;47.348;9.648;2024-03-17T01:56:09;7.70;99.90
18073;DHT22;9161;47.348;9.648;2024-03-17T02:01:11;7.70;99.90
18073;DHT22;9161;47.348;9.648;2024-03-17T02:06:15;7.70;99.90
18073;DHT22;9161;47.348;9.648;2024-03-17T02:11:25;7.50;99.90
18073;DHT22;9161;47.348;9.648;2024-03-17T02:16:27;7.40;99.90
18073;DHT22;9161;47.348;9.648;2024-03-17T02:21:28;7.40;99.90
18073;DHT22;9161;47.348;9.648;2024-03-17T02:26:31;7.40;99.90
18073;DHT22;9161;47.348;9.648;2024-03-17T02:31:33;7.20;99.90
18073;DHT22;9161;47.348;9.648;2024-03-17T02:36:34;7.00;99.90
18073;DHT22;9161;47.348;9.648;2024-03-17T02:41:37;6.80;99.90
18073;DHT22;9161;47.348;9.648;2024-03-17T02:46:41;6.60;99.90
18073;DHT22;9161;47.348;9.648;2024-03-17T02:51:42;6.50;99.90
18073;DHT22;9161;47.348;9.648;2024-03-17T02:56:45;6.50;99.90
18073;DHT22;9161;47.348;9.648;2024-03-17T03:01:46;6.80;99.90
18073;DHT22;9161;47.348;9.648;2024-03-17T03:06:47;6.90;99.90
18073;DHT22;9161;47.348;9.648;2024-03-17T03:11:50;6.70;99.90
18073;DHT22;9161;47.348;9.648;2024-03-17T03:16:51;6.50;99.90
18073;DHT22;9161;47.348;9.648;2024-03-17T03:21:52;6.50;99.90
18073;DHT22;9161;47.348;9.648;2024-03-17T03:26:55;6.60;99.90
18073;DHT22;9161;47.348;9.648;2024-03-17T03:31:56;6.50;99.90
18073;DHT22;9161;47.348;9.648;2024-03-17T03:36:58;6.30;99.90
18073;DHT22;9161;47.348;9.648;2024-03-17T03:42:01;6.10;99.90
18073;DHT22;9161;47.348;9.648;2024-03-17T03:47:02;6.00;99.90
18073;DHT22;9161;47.348;9.648;2024-03-17T03:52:03;5.90;99.90
18073;DHT22;9161;47.348;9.648;2024-03-17T03:57:06;6.20;99.90
18073;DHT22;9161;47.348;9.648;2024-03-17T04:02:07;7.00;99.90
18073;DHT22;9161;47.348;9.648;2024-03-17T04:07:09;6.90;99.90
18073;DHT22;9161;47.348;9.648;2024-03-17T04:12:13;6.80;99.90
18073;DHT22;9161;47.348;9.648;2024-03-17T04:17:14;6.80;99.90
18073;DHT22;9161;47.348;9.648;2024-03-17T04:22:16;6.50;99.90
18073;DHT22;9161;47.348;9.648;2024-03-17T04:27:19;6.20;99.90
18073;DHT22;9161;47.348;9.648;2024-03-17T04:32:20;5.90;99.90
18073;DHT22;9161;47.348;9.648;2024-03-17T04:37:21;5.70;99.90
18073;DHT22;9161;47.348;9.648;2024-03-17T04:47:58;5.30;99.90
18073;DHT22;9161;47.348;9.648;2024-03-17T04:53:06;5.50;99.90
18073;DHT22;9161;47.348;9.648;2024-03-17T04:58:25;5.50;99.90
18073;DHT22;9161;47.348;9.648;2024-03-17T05:03:28;5.20;99.90
18073;DHT22;9161;47.348;9.648;2024-03-17T05:08:29;5.20;99.90
18073;DHT22;9161;47.348;9.648;2024-03-17T05:13:31;5.20;99.90
18073;DHT22;9161;47.348;9.648;2024-03-17T05:18:34;4.90;99.90
18073;DHT22;9161;47.348;9.648;2024-03-17T05:23:38;4.80;99.90
18073;DHT22;9161;47.348;9.648;2024-03-17T05:28:39;4.70;99.90
18073;DHT22;9161;47.348;9.648;2024-03-17T05:33:42;5.30;99.90
18073;DHT22;9161;47.348;9.648;2024-03-17T05:38:43;5.10;99.90
18073;DHT22;9161;47.348;9.648;2024-03-17T05:43:45;5.10;99.90
18073;DHT22;9161;47.348;9.648;2024-03-17T05:48:49;5.20;99.90
18073;DHT22;9161;47.348;9.648;2024-03-17T05:53:50;5.00;99.90
18073;DHT22;9161;47.348;9.648;2024-03-17T05:58:51;5.10;99.90
18073;DHT22;9161;47.348;9.648;2024-03-17T06:03:54;5.00;99.90
18073;DHT22;9161;47.348;9.648;2024-03-17T06:08:56;5.10;99.90
18073;DHT22;9161;47.348;9.648;2024-03-17T06:13:57;5.10;99.90
18073;DHT22;9161;47.348;9.648;2024-03-17T06:19:03;5.10;99.90
18073;DHT22;9161;47.348;9.648;2024-03-17T06:24:05;5.10;99.90
18073;DHT22;9161;47.348;9.648;2024-03-17T06:29:07;5.10;99.90
18073;DHT22;9161;47.348;9.648;2024-03-17T06:34:10;5.20;99.90
18073;DHT22;9161;47.348;9.648;2024-03-17T06:39:11;5.30;99.90
18073;DHT22;9161;47.348;9.648;2024-03-17T06:44:15;5.60;99.90
18073;DHT22;9161;47.348;9.648;2024-03-17T06:49:18;5.60;99.90
18073;DHT22;9161;47.348;9.648;2024-03-17T06:54:19;5.70;99.90
18073;DHT22;9161;47.348;9.648;2024-03-17T06:59:22;5.80;99.90
18073;DHT22;9161;47.348;9.648;2024-03-17T07:04:25;6.10;99.90
18073;DHT22;9161;47.348;9.648;2024-03-17T07:09:26;6.70;99.90
18073;DHT22;9161;47.348;9.648;2024-03-17T07:14:27;7.40;99.90
18073;DHT22;9161;47.348;9.648;2024-03-17T07:19:29;8.10;99.90
18073;DHT22;9161;47.348;9.648;2024-03-17T07:24:32;8.70;99.90
18073;DHT22;9161;47.348;9.648;2024-03-17T07:29:33;9.30;99.90
18073;DHT22;9161;47.348;9.648;2024-03-17T07:34:36;10.20;99.90
18073;DHT22;9161;47.348;9.648;2024-03-17T07:39:37;11.00;99.90
18073;DHT22;9161;47.348;9.648;2024-03-17T07:44:38;11.60;99.90
18073;DHT22;9161;47.348;9.648;2024-03-17T07:49:41;12.20;99.90
18073;DHT22;9161;47.348;9.648;2024-03-17T07:54:42;12.70;99.90
18073;DHT22;9161;47.348;9.648;2024-03-17T07:59:49;13.10;99.90
18073;DHT22;9161;47.348;9.648;2024-03-17T08:04:53;13.10;99.90
18073;DHT22;9161;47.348;9.648;2024-03-17T08:09:54;12.80;99.90
18073;DHT22;9161;47.348;9.648;2024-03-17T08:14:55;12.60;99.90
18073;DHT22;9161;47.348;9.648;2024-03-17T08:19:58;12.70;99.90
18073;DHT22;9161;47.348;9.648;2024-03-17T08:24:58;12.60;99.90
18073;DHT22;9161;47.348;9.648;2024-03-17T08:30:00;12.60;99.90
18073;DHT22;9161;47.348;9.648;2024-03-17T08:35:03;12.60;99.90
18073;DHT22;9161;47.348;9.648;2024-03-17T08:40:06;12.40;99.90
18073;DHT22;9161;47.348;9.648;2024-03-17T08:45:09;12.50;99.90
18073;DHT22;9161;47.348;9.648;2024-03-17T08:50:12;12.80;99.90
18073;DHT22;9161;47.348;9.648;2024-03-17T08:55:14;13.00;99.90
18073;DHT22;9161;47.348;9.648;2024-03-17T09:00:17;13.40;99.90
18073;DHT22;9161;47.348;9.648;2024-03-17T09:05:20;13.70;99.90
18073;DHT22;9161;47.348;9.648;2024-03-17T09:10:22;13.80;99.90
18073;DHT22;9161;47.348;9.648;2024-03-17T09:15:23;13.70;99.90
18073;DHT22;9161;47.348;9.648;2024-03-17T09:20:26;13.70;99.90
18073;DHT22;9161;47.348;9.648;2024-03-17T09:25:28;13.60;99.90
18073;DHT22;9161;47.348;9.648;2024-03-17T09:30:29;13.90;99.90
18073;DHT22;9161;47.348;9.648;2024-03-17T09:35:32;14.20;99.90
18073;DHT22;9161;47.348;9.648;2024-03-17T09:40:34;14.80;99.90
18073;DHT22;9161;47.348;9.648;2024-03-17T09:45:36;15.10;99.90
18073;DHT22;9161;47.348;9.648;2024-03-17T09:50:40;15.50;99.90
18073;DHT22;9161;47.348;9.648;2024-03-17T09:55:41;15.70;99.90
18073;DHT22;9161;47.348;9.648;2024-03-17T10:00:43;16.20;99.90
18073;DHT22;9161;47.348;9.648;2024-03-17T10:05:45;16.70;99.90
18073;DHT22;9161;47.348;9.648;2024-03-17T10:10:52;17.20;99.90
18073;DHT22;9161;47.348;9.648;2024-03-17T10:15:54;17.40;99.90
18073;DHT22;9161;47.348;9.648;2024-03-17T10:21:00;17.20;99.90
18073;DHT22;9161;47.348;9.648;2024-03-17T10:26:02;17.30;99.90
18073;DHT22;9161;47.348;9.648;2024-03-17T10:31:13;17.80;99.90
18073;DHT22;9161;47.348;9.648;2024-03-17T10:36:17;17.80;99.90
18073;DHT22;9161;47.348;9.648;2024-03-17T10:41:19;18.30;99.90
18073;DHT22;9161;47.348;9.648;2024-03-17T10:46:21;18.60;99.90
18073;DHT22;9161;47.348;9.648;2024-03-17T10:51:26;18.90;99.90
18073;DHT22;9161;47.348;9.648;2024-03-17T10:56:27;18.80;99.90
18073;DHT22;9161;47.348;9.648;2024-03-17T11:01:29;19.20;99.90
18073;DHT22;9161;47.348;9.648;2024-03-17T11:06:33;19.30;99.90
18073;DHT22;9161;47.348;9.648;2024-03-17T11:11:35;19.20;99.90
18073;DHT22;9161;47.348;9.648;2024-03-17T11:16:39;19.20;99.90
18073;DHT22;9161;47.348;9.648;2024-03-17T11:21:41;18.50;99.90
18073;DHT22;9161;47.348;9.648;2024-03-17T11:26:43;17.60;99.90
18073;DHT22;9161;47.348;9.648;2024-03-17T11:31:45;17.00;99.90
18073;DHT22;9161;47.348;9.648;2024-03-17T11:36:55;16.70;99.90
18073;DHT22;9161;47.348;9.648;2024-03-17T11:42:04;16.80;99.90
18073;DHT22;9161;47.348;9.648;2024-03-17T11:47:10;16.90;99.90
18073;DHT22;9161;47.348;9.648;2024-03-17T11:52:14;17.20;99.90
18073;DHT22;9161;47.348;9.648;2024-03-17T11:57:22;16.90;99.90
18073;DHT22;9161;47.348;9.648;2024-03-17T12:02:27;16.60;99.90
18073;DHT22;9161;47.348;9.648;2024-03-17T12:07:30;16.60;99.90
18073;DHT22;9161;47.348;9.648;2024-03-17T12:12:31;16.20;99.90
18073;DHT22;9161;47.348;9.648;2024-03-17T12:17:35;16.40;99.90
18073;DHT22;9161;47.348;9.648;2024-03-17T12:22:37;16.40;99.90
18073;DHT22;9161;47.348;9.648;2024-03-17T12:27:44;16.50;99.90
18073;DHT22;9161;47.348;9.648;2024-03-17T12:32:45;16.60;99.90
18073;DHT22;9161;47.348;9.648;2024-03-17T12:37:49;16.50;99.90
18073;DHT22;9161;47.348;9.648;2024-03-17T12:42:51;16.20;99.90
18073;DHT22;9161;47.348;9.648;2024-03-17T12:47:53;16.00;99.90
18073;DHT22;9161;47.348;9.648;2024-03-17T12:52:56;15.60;99.90
18073;DHT22;9161;47.348;9.648;2024-03-17T12:58:06;15.60;99.90
18073;DHT22;9161;47.348;9.648;2024-03-17T13:03:25;15.40;99.90
18073;DHT22;9161;47.348;9.648;2024-03-17T13:08:28;15.40;99.90
18073;DHT22;9161;47.348;9.648;2024-03-17T13:13:31;15.10;99.90
18073;DHT22;9161;47.348;9.648;2024-03-17T13:18:34;15.00;99.90
18073;DHT22;9161;47.348;9.648;2024-03-17T13:23:37;14.80;99.90
18073;DHT22;9161;47.348;9.648;2024-03-17T13:28:38;14.90;99.90
18073;DHT22;9161;47.348;9.648;2024-03-17T13:33:39;14.80;99.90
18073;DHT22;9161;47.348;9.648;2024-03-17T13:38:41;14.60;99.90
18073;DHT22;9161;47.348;9.648;2024-03-17T13:43:43;14.50;99.90
18073;DHT22;9161;47.348;9.648;2024-03-17T13:48:44;14.40;99.90
18073;DHT22;9161;47.348;9.648;2024-03-17T13:53:46;14.30;99.90
18073;DHT22;9161;47.348;9.648;2024-03-17T13:58:50;14.20;99.90
18073;DHT22;9161;47.348;9.648;2024-03-17T14:03:51;14.00;99.90
18073;DHT22;9161;47.348;9.648;2024-03-17T14:08:54;13.70;99.90
18073;DHT22;9161;47.348;9.648;2024-03-17T14:13:55;13.50;99.90
18073;DHT22;9161;47.348;9.648;2024-03-17T14:18:56;13.50;99.90
18073;DHT22;9161;47.348;9.648;2024-03-17T14:23:59;13.50;99.90
18073;DHT22;9161;47.348;9.648;2024-03-17T14:29:02;13.30;99.90
18073;DHT22;9161;47.348;9.648;2024-03-17T14:34:04;13.20;99.90
18073;DHT22;9161;47.348;9.648;2024-03-17T14:39:07;12.90;99.90
18073;DHT22;9161;47.348;9.648;2024-03-17T14:44:08;12.90;99.90
18073;DHT22;9161;47.348;9.648;2024-03-17T14:49:10;12.90;99.90
18073;DHT22;9161;47.348;9.648;2024-03-17T14:54:28;12.50;99.90
18073;DHT22;9161;47.348;9.648;2024-03-17T14:59:31;12.70;99.90
18073;DHT22;9161;47.348;9.648;2024-03-17T15:04:41;12.80;99.90
18073;DHT22;9161;47.348;9.648;2024-03-17T15:09:45;12.70;99.90
18073;DHT22;9161;47.348;9.648;2024-03-17T15:14:48;12.70;99.90
18073;DHT22;9161;47.348;9.648;2024-03-17T15:19:49;12.60;99.90
18073;DHT22;9161;47.348;9.648;2024-03-17T15:24:51;12.50;99.90
18073;DHT22;9161;47.348;9.648;2024-03-17T15:29:52;12.50;99.90
18073;DHT22;9161;47.348;9.648;2024-03-17T15:34:55;12.40;99.90
18073;DHT22;9161;47.348;9.648;2024-03-17T15:40:00;12.40;99.90
18073;DHT22;9161;47.348;9.648;2024-03-17T15:45:01;12.40;99.90
18073;DHT22;9161;47.348;9.648;2024-03-17T15:50:02;12.10;99.90
18073;DHT22;9161;47.348;9.648;2024-03-17T15:55:05;12.00;99.90
18073;DHT22;9161;47.348;9.648;2024-03-17T16:00:10;11.80;99.90
18073;DHT22;9161;47.348;9.648;2024-03-17T16:05:14;11.60;99.90
18073;DHT22;9161;47.348;9.648;2024-03-17T16:10:19;11.50;99.90
18073;DHT22;9161;47.348;9.648;2024-03-17T16:15:22;11.40;99.90
18073;DHT22;9161;47.348;9.648;2024-03-17T16:20:56;11.20;99.90
18073;DHT22;9161;47.348;9.648;2024-03-17T16:26:00;11.30;99.90
18073;DHT22;9161;47.348;9.648;2024-03-17T16:31:02;11.10;99.90
18073;DHT22;9161;47.348;9.648;2024-03-17T16:36:05;11.00;99.90
18073;DHT22;9161;47.348;9.648;2024-03-17T16:41:10;11.00;99.90
18073;DHT22;9161;47.348;9.648;2024-03-17T16:46:28;11.00;99.90
18073;DHT22;9161;47.348;9.648;2024-03-17T16:51:30;11.00;99.90
18073;DHT22;9161;47.348;9.648;2024-03-17T16:56:33;10.80;99.90
18073;DHT22;9161;47.348;9.648;2024-03-17T17:01:36;10.60;99.90
18073;DHT22;9161;47.348;9.648;2024-03-17T17:06:38;10.60;99.90
18073;DHT22;9161;47.348;9.648;2024-03-17T17:11:40;10.60;99.90
18073;DHT22;9161;47.348;9.648;2024-03-17T17:16:45;10.50;99.90
18073;DHT22;9161;47.348;9.648;2024-03-17T17:21:46;10.50;99.90
18073;DHT22;9161;47.348;9.648;2024-03-17T17:26:51;10.50;99.90
18073;DHT22;9161;47.348;9.648;2024-03-17T17:31:55;10.40;99.90
18073;DHT22;9161;47.348;9.648;2024-03-17T17:36:56;10.50;99.90
18073;DHT22;9161;47.348;9.648;2024-03-17T17:41:59;10.70;99.90
18073;DHT22;9161;47.348;9.648;2024-03-17T17:47:04;10.90;99.90
18073;DHT22;9161;47.348;9.648;2024-03-17T17:52:06;10.80;99.90
18073;DHT22;9161;47.348;9.648;2024-03-17T17:57:08;10.70;99.90
18073;DHT22;9161;47.348;9.648;2024-03-17T18:02:10;10.60;99.90
18073;DHT22;9161;47.348;9.648;2024-03-17T18:07:11;10.50;99.90
18073;DHT22;9161;47.348;9.648;2024-03-17T18:12:14;10.50;99.90
18073;DHT22;9161;47.348;9.648;2024-03-17T18:17:15;10.60;99.90
18073;DHT22;9161;47.348;9.648;2024-03-17T18:22:18;10.90;99.90
18073;DHT22;9161;47.348;9.648;2024-03-17T18:27:21;11.10;99.90
18073;DHT22;9161;47.348;9.648;2024-03-17T18:32:22;10.90;99.90
18073;DHT22;9161;47.348;9.648;2024-03-17T18:37:23;11.20;99.90
18073;DHT22;9161;47.348;9.648;2024-03-17T18:42:29;11.30;99.90
18073;DHT22;9161;47.348;9.648;2024-03-17T18:47:35;11.20;99.90
18073;DHT22;9161;47.348;9.648;2024-03-17T18:52:38;11.20;99.90
18073;DHT22;9161;47.348;9.648;2024-03-17T18:57:41;11.10;99.90
18073;DHT22;9161;47.348;9.648;2024-03-17T19:02:45;11.00;99.90
18073;DHT22;9161;47.348;9.648;2024-03-17T19:07:50;11.00;99.90
18073;DHT22;9161;47.348;9.648;2024-03-17T19:13:04;11.10;99.90
18073;DHT22;9161;47.348;9.648;2024-03-17T19:18:14;10.90;99.90
18073;DHT22;9161;47.348;9.648;2024-03-17T19:23:16;10.90;99.90
18073;DHT22;9161;47.348;9.648;2024-03-17T19:28:21;10.80;99.90
18073;DHT22;9161;47.348;9.648;2024-03-17T19:33:26;10.80;99.90
18073;DHT22;9161;47.348;9.648;2024-03-17T19:38:27;10.70;99.90
18073;DHT22;9161;47.348;9.648;2024-03-17T19:43:30;10.70;99.90
18073;DHT22;9161;47.348;9.648;2024-03-17T19:48:34;10.70;99.90
18073;DHT22;9161;47.348;9.648;2024-03-17T19:53:37;10.70;99.90
18073;DHT22;9161;47.348;9.648;2024-03-17T19:58:43;10.60;99.90
18073;DHT22;9161;47.348;9.648;2024-03-17T20:03:44;10.70;99.90
18073;DHT22;9161;47.348;9.648;2024-03-17T20:08:51;10.60;99.90
18073;DHT22;9161;47.348;9.648;2024-03-17T20:13:59;10.60;99.90
18073;DHT22;9161;47.348;9.648;2024-03-17T20:19:02;10.80;99.90
18073;DHT22;9161;47.348;9.648;2024-03-17T20:24:04;10.70;99.90
18073;DHT22;9161;47.348;9.648;2024-03-17T20:29:08;10.80;99.90
18073;DHT22;9161;47.348;9.648;2024-03-17T20:34:10;10.70;99.90
18073;DHT22;9161;47.348;9.648;2024-03-17T20:39:11;10.60;99.90
18073;DHT22;9161;47.348;9.648;2024-03-17T20:44:13;10.70;99.90
18073;DHT22;9161;47.348;9.648;2024-03-17T20:49:14;10.70;99.90
18073;DHT22;9161;47.348;9.648;2024-03-17T20:54:16;10.70;99.90
18073;DHT22;9161;47.348;9.648;2024-03-17T20:59:19;10.70;99.90
18073;DHT22;9161;47.348;9.648;2024-03-17T21:04:21;10.70;99.90
18073;DHT22;9161;47.348;9.648;2024-03-17T21:09:22;10.80;99.90
18073;DHT22;9161;47.348;9.648;2024-03-17T21:14:25;10.80;99.90
18073;DHT22;9161;47.348;9.648;2024-03-17T21:19:27;10.90;99.90
18073;DHT22;9161;47.348;9.648;2024-03-17T21:24:28;10.80;99.90
18073;DHT22;9161;47.348;9.648;2024-03-17T21:29:31;10.80;99.90
18073;DHT22;9161;47.348;9.648;2024-03-17T21:34:32;10.80;99.90
18073;DHT22;9161;47.348;9.648;2024-03-17T21:39:33;10.80;99.90
18073;DHT22;9161;47.348;9.648;2024-03-17T21:44:37;10.80;99.90
18073;DHT22;9161;47.348;9.648;2024-03-17T21:49:38;10.80;99.90
18073;DHT22;9161;47.348;9.648;2024-03-17T21:54:40;10.80;99.90
18073;DHT22;9161;47.348;9.648;2024-03-17T21:59:42;10.80;99.90
18073;DHT22;9161;47.348;9.648;2024-03-17T22:04:44;10.70;99.90
18073;DHT22;9161;47.348;9.648;2024-03-17T22:09:45;10.50;99.90
18073;DHT22;9161;47.348;9.648;2024-03-17T22:14:48;10.40;99.90
18073;DHT22;9161;47.348;9.648;2024-03-17T22:19:51;10.30;99.90
18073;DHT22;9161;47.348;9.648;2024-03-17T22:24:52;10.40;99.90
18073;DHT22;9161;47.348;9.648;2024-03-17T22:29:55;10.50;99.90
18073;DHT22;9161;47.348;9.648;2024-03-17T22:34:57;10.50;99.90
18073;DHT22;9161;47.348;9.648;2024-03-17T22:40:06;10.40;99.90
18073;DHT22;9161;47.348;9.648;2024-03-17T22:57:59;10.60;99.90
18073;DHT22;9161;47.348;9.648;2024-03-17T23:03:01;10.60;99.90
18073;DHT22;9161;47.348;9.648;2024-03-17T23:08:04;10.60;99.90
18073;DHT22;9161;47.348;9.648;2024-03-17T23:13:10;10.60;99.90
18073;DHT22;9161;47.348;9.648;2024-03-17T23:18:12;10.60;99.90
18073;DHT22;9161;47.348;9.648;2024-03-17T23:23:16;10.50;99.90
18073;DHT22;9161;47.348;9.648;2024-03-17T23:28:19;10.50;99.90
18073;DHT22;9161;47.348;9.648;2024-03-17T23:33:21;10.40;99.90
18073;DHT22;9161;47.348;9.648;2024-03-17T23:38:22;10.60;99.90
18073;DHT22;9161;47.348;9.648;2024-03-17T23:43:25;10.70;99.90
18073;DHT22;9161;47.348;9.648;2024-03-17T23:48:26;10.70;99.90
18073;DHT22;9161;47.348;9.648;2024-03-17T23:53:27;10.70;99.90
18073;DHT22;9161;47.348;9.648;2024-03-17T23:58:30;10.80;99.90
